| time (UTC) | temp C | wind direction | speed KPH | gust KPH | rain 1hr cm | rain 24hr cm | rain mn cm | humidity % | barometer mb |
| 20260507155516 | 14 | 0.0 | 3.2 | 0.00 | 0.25 | 0.25 | |||
| 20260507154516 | 15 | 270 | 3.2 | 11.3 | 0.00 | 0.25 | 0.25 | ||
| 20260507153516 | 15 | 135 | 3.2 | 9.7 | 0.00 | 0.25 | 0.25 | ||
| 20260507152516 | 15 | 135 | 3.2 | 9.7 | 0.00 | 0.25 | 0.25 | ||
| 20260507151516 | 16 | 135 | 1.6 | 8.0 | 0.00 | 0.25 | 0.25 | ||
| 20260507150516 | 16 | 0.0 | 1.6 | 0.00 | 0.25 | 0.25 | |||
| 20260507145516 | 16 | 68 | 1.6 | 3.2 | 0.00 | 0.25 | 0.25 | ||
| 20260507144516 | 16 | 113 | 1.6 | 4.8 | 0.00 | 0.25 | 0.25 | ||
| 20260507143516 | 16 | 90 | 1.6 | 6.4 | 0.00 | 0.25 | 0.25 | ||
| 20260507142516 | 16 | 158 | 3.2 | 8.0 | 0.00 | 0.25 | 0.25 | ||
| 20260507141516 | 16 | 90 | 3.2 | 8.0 | 0.00 | 0.25 | 0.25 | ||
| 20260507140516 | 16 | 203 | 4.8 | 12.9 | 0.00 | 0.25 | 0.25 | ||
| 20260507135516 | 16 | 135 | 4.8 | 11.3 | 0.00 | 0.25 | 0.25 | ||
| 20260507134516 | 16 | 135 | 3.2 | 9.7 | 0.00 | 0.25 | 0.25 | ||
| 20260507133536 | 16 | 180 | 4.8 | 12.9 | 0.00 | 0.25 | 0.25 | ||
| 20260507132526 | 16 | 225 | 3.2 | 6.4 | 0.00 | 0.25 | 0.25 | ||
| 20260507131516 | 16 | 158 | 4.8 | 12.9 | 0.00 | 0.25 | 0.25 | ||
| 20260507130516 | 16 | 23 | 3.2 | 8.0 | 0.00 | 0.25 | 0.25 | ||
| 20260507125516 | 16 | 135 | 4.8 | 17.7 | 0.00 | 0.25 | 0.25 | ||
| 20260507124516 | 16 | 158 | 3.2 | 9.7 | 0.00 | 0.25 | 0.25 | ||
| 20260507123516 | 16 | 135 | 4.8 | 9.7 | 0.00 | 0.25 | 0.25 | ||
| 20260507122516 | 15 | 0.0 | 4.8 | 0.00 | 0.25 | 0.25 | |||
| 20260507121516 | 15 | 68 | 3.2 | 6.4 | 0.00 | 0.25 | 0.25 | ||
| 20260507120536 | 14 | 68 | 4.8 | 11.3 | 0.00 | 0.25 | 0.25 | ||
| 20260507115516 | 13 | 68 | 6.4 | 14.5 | 0.00 | 0.25 | 0.25 | ||
| 20260507114516 | 13 | 45 | 4.8 | 9.7 | 0.00 | 0.25 | 0.25 | ||
| 20260507113536 | 14 | 68 | 4.8 | 17.7 | 0.00 | 0.25 | 0.25 | ||
| 20260507112516 | 14 | 68 | 4.8 | 14.5 | 0.00 | 0.25 | 0.25 | ||
| 20260507111516 | 13 | 68 | 6.4 | 16.1 | 0.00 | 0.25 | 0.25 | ||
| 20260507110516 | 13 | 68 | 8.0 | 16.1 | 0.00 | 0.25 | 0.25 | ||
| 20260507105516 | 13 | 68 | 9.7 | 19.3 | 0.00 | 0.25 | 0.25 | ||
| 20260507104516 | 13 | 68 | 11.3 | 22.5 | 0.00 | 0.25 | 0.25 | ||
| 20260507103516 | 12 | 68 | 11.3 | 24.1 | 0.00 | 0.25 | 0.25 | ||
| 20260507102516 | 11 | 68 | 8.0 | 20.9 | 0.00 | 0.25 | 0.25 | ||
| 20260507101517 | 11 | 68 | 9.7 | 20.9 | 0.00 | 0.25 | 0.25 | ||
| 20260507100516 | 11 | 68 | 6.4 | 16.1 | 0.00 | 0.25 | 0.25 | ||
| 20260507095516 | 10 | 68 | 8.0 | 19.3 | 0.00 | 0.25 | 0.25 | ||
| 20260507094516 | 10 | 68 | 6.4 | 16.1 | 0.00 | 0.25 | 0.25 | ||
| 20260507093516 | 10 | 68 | 6.4 | 12.9 | 0.00 | 0.25 | 0.25 | ||
| 20260507092516 | 10 | 45 | 6.4 | 14.5 | 0.00 | 0.25 | 0.25 | ||
| 20260507091536 | 10 | 45 | 6.4 | 24.1 | 0.00 | 0.25 | 0.25 | ||
| 20260507090516 | 10 | 45 | 6.4 | 24.1 | 0.00 | 0.25 | 0.25 | ||
| 20260507085536 | 9 | 45 | 6.4 | 14.5 | 0.00 | 0.25 | 0.25 | ||
| 20260507084516 | 9 | 45 | 6.4 | 14.5 | 0.03 | 0.25 | 0.25 | ||
| 20260507083536 | 9 | 68 | 9.7 | 29.0 | 0.03 | 0.25 | 0.25 | ||
| 20260507082516 | 10 | 45 | 6.4 | 20.9 | 0.03 | 0.25 | 0.25 | ||
| 20260507081516 | 10 | 45 | 4.8 | 12.9 | 0.03 | 0.25 | 0.25 | ||
| 20260507080516 | 10 | 68 | 3.2 | 9.7 | 0.03 | 0.25 | 0.25 | ||
| 20260507075516 | 10 | 45 | 4.8 | 17.7 | 0.03 | 0.25 | 0.25 | ||
| 20260507074516 | 10 | 68 | 6.4 | 17.7 | 0.03 | 0.23 | 0.23 | ||
| 20260507073536 | 10 | 68 | 6.4 | 11.3 | 0.03 | 0.23 | 0.23 | ||
| 20260507072516 | 9 | 68 | 6.4 | 17.7 | 0.05 | 0.23 | 0.23 | ||
| 20260507071516 | 9 | 68 | 6.4 | 12.9 | 0.05 | 0.23 | 0.23 | ||
| 20260507070536 | 8 | 68 | 3.2 | 9.7 | 0.05 | 0.23 | 0.23 | ||
| 20260507065516 | 8 | 90 | 1.6 | 6.4 | 0.05 | 0.23 | 0.23 | ||
| 20260507064516 | 8 | 158 | 1.6 | 4.8 | 0.05 | 0.23 | 0.23 | ||
| 20260507063516 | 8 | 68 | 1.6 | 4.8 | 0.05 | 0.23 | 0.23 | ||
| 20260507062536 | 8 | 270 | 1.6 | 3.2 | 0.03 | 0.20 | 0.20 | ||
| 20260507061516 | 8 | 270 | 1.6 | 3.2 | 0.03 | 0.20 | 0.20 | ||
| 20260507060516 | 8 | 45 | 1.6 | 6.4 | 0.03 | 0.20 | 0.20 | ||
| 20260507055517 | 8 | 68 | 1.6 | 4.8 | 0.03 | 0.20 | 0.20 | ||
| 20260507054516 | 8 | 68 | 3.2 | 8.0 | 0.00 | 0.18 | 0.18 | ||
| 20260507053516 | 8 | 45 | 1.6 | 6.4 | 0.00 | 0.18 | 0.18 | ||
| 20260507052516 | 8 | 270 | 1.6 | 3.2 | 0.00 | 0.18 | 0.18 | ||
| 20260507051517 | 8 | 45 | 3.2 | 8.0 | 0.03 | 0.18 | 0.18 | ||
| 20260507050536 | 8 | 68 | 4.8 | 11.3 | 0.05 | 0.18 | 0.18 | ||
| 20260507045516 | 8 | 68 | 4.8 | 11.3 | 0.05 | 0.18 | 0.18 | ||
| 20260507044516 | 7 | 45 | 6.4 | 12.9 | 0.05 | 0.18 | 0.18 | ||
| 20260507043516 | 7 | 45 | 3.2 | 16.1 | 0.05 | 0.18 | 0.18 | ||
| 20260507042516 | 7 | 45 | 4.8 | 12.9 | 0.08 | 0.18 | 0.18 | ||
| 20260507041516 | 7 | 0.0 | 1.6 | 0.08 | 0.15 | 0.15 | |||
| 20260507040516 | 8 | 45 | 3.2 | 12.9 | 0.08 | 0.15 | 0.15 | ||
| 20260507035536 | 8 | 45 | 3.2 | 12.9 | 0.10 | 0.13 | 0.13 | ||
| 20260507034536 | 8 | 45 | 3.2 | 11.3 | 0.10 | 0.13 | 0.13 | ||
| 20260507033516 | 8 | 45 | 3.2 | 12.9 | 0.10 | 0.13 | 0.13 | ||
| 20260507032516 | 8 | 45 | 1.6 | 11.3 | 0.08 | 0.10 | 0.10 | ||
| 20260507031516 | 8 | 68 | 4.8 | 11.3 | 0.05 | 0.08 | 0.08 | ||
| 20260507030516 | 7 | 0.0 | 3.2 | 0.05 | 0.05 | 0.05 | |||
| 20260507025516 | 8 | 0.0 | 3.2 | 0.00 | 0.03 | 0.03 | |||
| 20260507024516 | 8 | 0.0 | 1.6 | 0.00 | 0.03 | 0.03 | |||
| 20260507023516 | 8 | 0.0 | 1.6 | 0.00 | 0.03 | 0.03 | |||
| 20260507022516 | 8 | 0.0 | 1.6 | 0.00 | 0.03 | 0.03 | |||
| 20260507021516 | 8 | 68 | 1.6 | 4.8 | 0.00 | 0.03 | 0.03 | ||
| 20260507020536 | 8 | 0.0 | 3.2 | 0.00 | 0.03 | 0.03 | |||
| 20260507015516 | 9 | 270 | 1.6 | 4.8 | 0.00 | 0.03 | 0.03 | ||
| 20260507014516 | 8 | 0.0 | 1.6 | 0.00 | 0.03 | 0.03 | |||
| 20260507013516 | 8 | 0.0 | 3.2 | 0.03 | 0.03 | 0.03 | |||
| 20260507012516 | 8 | 0.0 | 0.0 | 0.03 | 0.03 | 0.03 | |||
| 20260507011536 | 8 | 0.0 | 1.6 | 0.03 | 0.03 | 0.03 | |||
| 20260507010516 | 8 | 0.0 | 1.6 | 0.03 | 0.03 | 0.03 | |||
| 20260507005516 | 9 | 0.0 | 1.6 | 0.03 | 0.03 | 0.03 | |||
| 20260507004536 | 9 | 0.0 | 3.2 | 0.03 | 0.03 | 0.03 | |||
| 20260507003516 | 10 | 0.0 | 1.6 | 0.00 | 0.00 | 0.00 | |||
| 20260507002536 | 10 | 0.0 | 1.6 | 0.00 | 0.00 | 0.00 | |||
| 20260507001516 | 11 | 270 | 1.6 | 4.8 | 0.00 | 0.00 | 0.00 | ||
| 20260507000536 | 11 | 90 | 1.6 | 3.2 | 0.00 | 0.00 | 0.00 | ||
| 20260506235516 | 11 | 248 | 1.6 | 4.8 | 0.00 | 0.00 | 0.00 | ||
| 20260506234516 | 11 | 0.0 | 1.6 | 0.00 | 0.00 | 0.00 | |||
| 20260506233516 | 11 | 270 | 1.6 | 4.8 | 0.00 | 0.00 | 0.00 | ||
| 20260506232536 | 11 | 0.0 | 3.2 | 0.00 | 0.00 | 0.00 | |||
| 20260506231516 | 10 | 0.0 | 3.2 | 0.00 | 0.00 | 0.00 | |||
| 20260506230516 | 10 | 0.0 | 1.6 | 0.00 | 0.00 | 0.00 | |||
| 20260506225516 | 10 | 0.0 | 3.2 | 0.00 | 0.00 | 0.00 | |||
| 20260506224516 | 10 | 0.0 | 1.6 | 0.00 | 0.00 | 0.00 | |||
| 20260506223536 | 10 | 0.0 | 3.2 | 0.00 | 0.00 | 0.00 | |||
| 20260506222516 | 10 | 0.0 | 1.6 | 0.00 | 0.00 | 0.00 | |||
| 20260506221516 | 11 | 0.0 | 3.2 | 0.00 | 0.00 | 0.00 | |||
| 20260506220516 | 11 | 0.0 | 0.0 | 0.00 | 0.00 | 0.00 | |||
| 20260506215516 | 11 | 0.0 | 1.6 | 0.00 | 0.00 | 0.00 | |||
| 20260506214536 | 12 | 0.0 | 3.2 | 0.00 | 0.00 | 0.00 | |||
| 20260506213516 | 12 | 68 | 1.6 | 8.0 | 0.00 | 0.00 | 0.00 | ||
| 20260506212516 | 12 | 45 | 4.8 | 11.3 | 0.00 | 0.00 | 0.00 | ||
| 20260506211516 | 12 | 45 | 6.4 | 12.9 | 0.00 | 0.00 | 0.00 | ||
| 20260506210516 | 12 | 45 | 4.8 | 9.7 | 0.00 | 0.00 | 0.00 | ||
| 20260506205516 | 12 | 45 | 3.2 | 11.3 | 0.00 | 0.00 | 0.00 | ||
| 20260506204516 | 12 | 45 | 4.8 | 11.3 | 0.00 | 0.00 | 0.00 | ||
| 20260506203516 | 12 | 68 | 6.4 | 16.1 | 0.00 | 0.00 | 0.00 | ||
| 20260506202516 | 12 | 68 | 6.4 | 16.1 | 0.00 | 0.00 | 0.00 | ||
| 20260506201536 | 12 | 90 | 3.2 | 9.7 | 0.00 | 0.00 | 0.00 | ||
| 20260506200537 | 12 | 68 | 3.2 | 8.0 | 0.00 | 0.00 | 0.00 | ||
| 20260506195516 | 11 | 45 | 1.6 | 9.7 | 0.00 | 0.00 | 0.00 | ||
| 20260506194516 | 11 | 0.0 | 1.6 | 0.00 | 0.00 | 0.00 | |||
| 20260506193516 | 11 | 90 | 1.6 | 4.8 | 0.00 | 0.00 | 0.00 | ||
| 20260506192516 | 11 | 0.0 | 1.6 | 0.00 | 0.00 | 0.00 | |||
| 20260506191516 | 11 | 0.0 | 1.6 | 0.00 | 0.00 | 0.00 | |||
| 20260506190536 | 11 | 113 | 1.6 | 4.8 | 0.00 | 0.00 | 0.00 | ||
| 20260506185516 | 11 | 0.0 | 0.0 | 0.00 | 0.00 | 0.00 | |||
| 20260506184516 | 11 | 0.0 | 1.6 | 0.00 | 0.00 | 0.00 | |||
| 20260506183516 | 11 | 0.0 | 1.6 | 0.00 | 0.00 | 0.00 | |||
| 20260506182516 | 11 | 0.0 | 1.6 | 0.00 | 0.00 | 0.00 | |||
| 20260506181536 | 11 | 0.0 | 1.6 | 0.00 | 0.00 | 0.00 | |||
| 20260506180516 | 12 | 0.0 | 1.6 | 0.00 | 0.00 | 0.00 | |||
| 20260506175516 | 12 | 0.0 | 0.0 | 0.00 | 0.00 | 0.00 | |||
| 20260506174516 | 12 | 0.0 | 3.2 | 0.00 | 0.00 | 0.00 | |||
| 20260506173516 | 12 | 0.0 | 3.2 | 0.00 | 0.00 | 0.00 | |||
| 20260506172516 | 12 | 0.0 | 1.6 | 0.00 | 0.00 | 0.00 | |||
| 20260506171536 | 12 | 0.0 | 3.2 | 0.00 | 0.00 | 0.00 | |||
| 20260506170516 | 12 | 68 | 1.6 | 4.8 | 0.00 | 0.00 | 0.00 | ||
| 20260506165516 | 12 | 0.0 | 3.2 | 0.00 | 0.00 | 0.00 | |||
| 20260506164516 | 12 | 135 | 1.6 | 4.8 | 0.00 | 0.00 | 0.00 | ||
| 20260506163516 | 13 | 68 | 3.2 | 6.4 | 0.00 | 0.00 | 0.00 | ||
| 20260506162536 | 13 | 90 | 1.6 | 4.8 | 0.00 | 0.00 | 0.00 | ||
| 20260506161516 | 13 | 68 | 3.2 | 8.0 | 0.00 | 0.00 | 0.00 | ||
| 20260506160516 | 13 | 68 | 3.2 | 8.0 | 0.00 | 0.00 | 0.00 |